createdAt,value
2023-02-11T00:00:33.230Z,74.90
2023-02-11T00:01:32.239Z,73.80
2023-02-11T00:02:33.334Z,72.00
2023-02-11T00:03:32.378Z,72.80
2023-02-11T00:04:32.240Z,67.10
2023-02-11T00:05:32.215Z,70.20
2023-02-11T00:06:32.275Z,69.90
2023-02-11T00:07:32.225Z,68.10
2023-02-11T00:08:32.246Z,72.40
2023-02-11T00:09:32.223Z,67.80
2023-02-11T00:10:33.533Z,67.20
2023-02-11T00:11:32.189Z,63.40
2023-02-11T00:12:32.184Z,64.00
2023-02-11T00:13:32.161Z,69.70
2023-02-11T00:14:32.220Z,66.90
2023-02-11T00:15:32.141Z,69.80
2023-02-11T00:16:32.196Z,70.50
2023-02-11T00:17:32.131Z,70.60
2023-02-11T00:18:32.109Z,64.40
2023-02-11T00:19:33.935Z,70.60
2023-02-11T00:20:32.901Z,69.30
2023-02-11T00:21:32.159Z,68.30
2023-02-11T00:23:03.983Z,71.50
2023-02-11T00:23:32.041Z,69.30
2023-02-11T00:24:32.068Z,66.20
2023-02-11T00:25:32.056Z,67.50
2023-02-11T00:26:32.034Z,68.80
2023-02-11T00:27:32.032Z,69.30
2023-02-11T00:28:32.060Z,71.10
2023-02-11T00:29:32.054Z,72.10
2023-02-11T00:30:32.040Z,68.80
2023-02-11T00:31:32.087Z,67.10
2023-02-11T00:32:32.007Z,67.90
2023-02-11T00:33:32.988Z,64.30
2023-02-11T00:34:31.984Z,66.70
2023-02-11T00:35:31.977Z,62.20
2023-02-11T00:36:32.022Z,61.50
2023-02-11T00:37:31.969Z,62.40
2023-02-11T00:38:31.938Z,64.50
2023-02-11T00:39:31.937Z,62.00
2023-02-11T00:40:31.915Z,64.60
2023-02-11T00:41:31.918Z,64.90
2023-02-11T00:42:31.925Z,57.30
2023-02-11T00:43:31.888Z,60.40
2023-02-11T00:44:31.901Z,60.10
2023-02-11T00:45:31.896Z,57.40
2023-02-11T00:46:31.962Z,63.00
2023-02-11T00:47:31.928Z,59.40
2023-02-11T00:48:31.882Z,60.70
2023-02-11T00:49:31.868Z,60.60
2023-02-11T00:50:31.857Z,67.40
2023-02-11T00:51:31.859Z,64.70
2023-02-11T00:52:31.920Z,59.70
2023-02-11T00:53:31.828Z,64.80
2023-02-11T00:54:31.947Z,66.00
2023-02-11T00:55:31.808Z,62.70
2023-02-11T00:56:31.829Z,61.60
2023-02-11T00:57:31.837Z,63.90
2023-02-11T00:58:31.774Z,57.90
2023-02-11T00:59:31.887Z,57.70
2023-02-11T01:00:31.769Z,61.50
2023-02-11T01:01:31.820Z,64.30
2023-02-11T01:02:31.761Z,60.10
2023-02-11T01:03:31.750Z,61.10
2023-02-11T01:04:31.792Z,60.00
2023-02-11T01:05:31.805Z,56.80
2023-02-11T01:06:31.736Z,62.50
2023-02-11T01:07:31.713Z,57.10
2023-02-11T01:08:31.751Z,61.00
2023-02-11T01:09:31.730Z,60.00
2023-02-11T01:10:31.790Z,56.20
2023-02-11T01:11:31.752Z,56.30
2023-02-11T01:12:33.489Z,55.40
2023-02-11T01:13:31.685Z,58.50
2023-02-11T01:14:31.687Z,58.60
2023-02-11T01:15:31.700Z,60.60
2023-02-11T01:16:31.775Z,55.20
2023-02-11T01:17:31.658Z,53.50
2023-02-11T01:18:32.310Z,55.00
2023-02-11T01:19:31.640Z,52.40
2023-02-11T01:20:31.615Z,49.30
2023-02-11T01:21:31.691Z,52.60
2023-02-11T01:22:31.633Z,54.60
2023-02-11T01:23:31.636Z,56.60
2023-02-11T01:24:31.613Z,55.00
2023-02-11T01:25:31.607Z,48.60
2023-02-11T01:26:31.619Z,58.20
2023-02-11T01:27:31.570Z,55.30
2023-02-11T01:28:31.608Z,55.90
2023-02-11T01:29:31.554Z,50.90
2023-02-11T01:30:31.553Z,58.70
2023-02-11T01:31:31.696Z,56.40
2023-02-11T01:32:31.533Z,55.00
2023-02-11T01:33:31.538Z,55.40
2023-02-11T01:34:31.538Z,58.30
2023-02-11T01:35:31.504Z,56.90
2023-02-11T01:36:31.514Z,60.80
2023-02-11T01:37:31.565Z,55.10
2023-02-11T01:38:31.520Z,56.10
2023-02-11T01:39:31.501Z,55.50
2023-02-11T01:40:31.477Z,55.70
2023-02-11T01:41:31.453Z,58.20
2023-02-11T01:42:31.502Z,54.30
2023-02-11T01:43:31.495Z,58.70
2023-02-11T01:44:31.449Z,55.30
2023-02-11T01:45:31.468Z,55.50
2023-02-11T01:46:31.493Z,55.70
2023-02-11T01:47:31.422Z,52.60
2023-02-11T01:48:31.405Z,55.50
2023-02-11T01:49:31.523Z,56.00
2023-02-11T01:50:31.413Z,57.10
2023-02-11T01:51:31.383Z,57.50
2023-02-11T01:52:31.397Z,57.50
2023-02-11T01:53:31.397Z,55.60
2023-02-11T01:54:31.421Z,61.40
2023-02-11T01:55:31.377Z,56.70
2023-02-11T01:56:31.353Z,59.10
2023-02-11T01:57:31.361Z,53.60
2023-02-11T01:58:31.399Z,54.40
2023-02-11T01:59:31.339Z,54.40
2023-02-11T02:00:31.364Z,55.80
2023-02-11T02:01:31.430Z,58.00
2023-02-11T02:02:31.369Z,55.30
2023-02-11T02:03:31.315Z,52.10
2023-02-11T02:04:31.266Z,49.60
2023-02-11T02:05:32.276Z,55.70
2023-02-11T02:06:31.299Z,54.00
2023-02-11T02:07:31.260Z,55.30
2023-02-11T02:08:31.265Z,56.20
2023-02-11T02:09:31.272Z,54.50
2023-02-11T02:10:31.306Z,54.70
2023-02-11T02:11:31.264Z,56.10
2023-02-11T02:12:31.263Z,50.40
2023-02-11T02:13:31.271Z,58.20
2023-02-11T02:14:31.252Z,53.30
2023-02-11T02:15:31.190Z,49.60
2023-02-11T02:16:31.813Z,50.30
2023-02-11T02:17:31.175Z,53.00
2023-02-11T02:18:31.283Z,53.00
2023-02-11T02:19:31.272Z,52.60
2023-02-11T02:20:31.163Z,52.90
2023-02-11T02:21:31.168Z,55.50
2023-02-11T02:22:31.145Z,50.00
2023-02-11T02:23:31.152Z,53.30
2023-02-11T02:24:31.169Z,57.70
2023-02-11T02:25:31.162Z,51.20
2023-02-11T02:26:31.120Z,50.00
2023-02-11T02:27:31.173Z,48.50
2023-02-11T02:28:31.171Z,51.10
2023-02-11T02:29:31.085Z,54.60
2023-02-11T02:30:31.145Z,53.80
2023-02-11T02:31:31.120Z,52.20
2023-02-11T02:32:31.094Z,55.00
2023-02-11T02:33:31.074Z,57.60
2023-02-11T02:34:31.055Z,54.70
2023-02-11T02:35:31.039Z,54.80
2023-02-11T02:36:31.051Z,54.10
2023-02-11T02:37:31.073Z,53.90
2023-02-11T02:38:31.053Z,55.10
2023-02-11T02:39:31.009Z,54.40
2023-02-11T02:40:30.984Z,54.10
2023-02-11T02:41:32.011Z,54.50
2023-02-11T02:42:30.997Z,56.00
2023-02-11T02:43:31.034Z,55.20
2023-02-11T02:44:30.997Z,56.20
2023-02-11T02:45:30.993Z,55.50
2023-02-11T02:46:31.045Z,55.20
2023-02-11T02:47:30.958Z,57.50
2023-02-11T02:48:30.984Z,54.20
2023-02-11T02:49:30.933Z,61.40
2023-02-11T02:50:30.931Z,58.50
2023-02-11T02:51:30.930Z,61.80
2023-02-11T02:52:30.923Z,59.70
2023-02-11T02:53:30.964Z,63.50
2023-02-11T02:54:30.919Z,58.40
2023-02-11T02:55:30.896Z,59.20
2023-02-11T02:56:30.884Z,58.30
2023-02-11T02:57:30.879Z,60.70
2023-02-11T02:58:30.900Z,56.10
2023-02-11T02:59:30.893Z,59.40
2023-02-11T03:00:30.879Z,56.60
2023-02-11T03:01:30.840Z,56.30
2023-02-11T03:02:30.890Z,57.00
2023-02-11T03:03:30.858Z,61.80
2023-02-11T03:04:30.860Z,59.20
2023-02-11T03:05:30.848Z,52.70
2023-02-11T03:06:30.842Z,52.20
2023-02-11T03:07:31.042Z,64.10
2023-02-11T03:08:30.828Z,57.80
2023-02-11T03:09:30.801Z,61.00
2023-02-11T03:10:30.779Z,63.50
2023-02-11T03:11:30.832Z,56.50
2023-02-11T03:12:30.760Z,55.80
2023-02-11T03:13:30.752Z,56.40
2023-02-11T03:14:30.756Z,55.60
2023-02-11T03:15:30.730Z,60.10
2023-02-11T03:16:31.765Z,59.30
2023-02-11T03:17:30.764Z,55.20
2023-02-11T03:18:30.737Z,56.20
2023-02-11T03:19:30.725Z,57.80
2023-02-11T03:20:30.729Z,54.70
2023-02-11T03:21:30.697Z,53.30
2023-02-11T03:22:30.698Z,55.90
2023-02-11T03:23:30.736Z,55.80
2023-02-11T03:24:30.708Z,59.40
2023-02-11T03:25:30.728Z,54.80
2023-02-11T03:26:30.673Z,58.50
2023-02-11T03:27:30.645Z,59.80
2023-02-11T03:28:30.734Z,53.30
2023-02-11T03:29:30.647Z,57.90
2023-02-11T03:30:30.658Z,52.40
2023-02-11T03:31:30.730Z,53.90
2023-02-11T03:32:30.612Z,55.30
2023-02-11T03:33:30.613Z,57.30
2023-02-11T03:34:30.598Z,57.60
2023-02-11T03:35:30.623Z,49.10
2023-02-11T03:36:30.596Z,50.80
2023-02-11T03:37:30.581Z,52.00
2023-02-11T03:38:30.563Z,52.20
2023-02-11T03:39:30.583Z,48.70
2023-02-11T03:40:30.573Z,42.90
2023-02-11T03:41:30.574Z,55.90
2023-02-11T03:42:30.551Z,50.30
2023-02-11T03:43:30.541Z,51.50
2023-02-11T03:44:30.544Z,52.60
2023-02-11T03:45:30.605Z,54.90
2023-02-11T03:46:30.529Z,47.30
2023-02-11T03:47:30.522Z,52.60
2023-02-11T04:03:15.035Z,42.00
2023-02-11T04:04:14.958Z,44.60
2023-02-11T04:05:16.075Z,56.80
2023-02-11T04:06:16.072Z,56.40
2023-02-11T04:07:16.071Z,56.10
2023-02-11T04:08:16.097Z,55.60
2023-02-11T04:09:16.102Z,56.40
2023-02-11T04:10:16.062Z,58.60
2023-02-11T04:11:16.084Z,59.10
2023-02-11T04:12:16.039Z,60.00
2023-02-11T04:13:16.079Z,58.80
2023-02-11T04:14:16.011Z,55.50
2023-02-11T04:15:16.045Z,57.70
2023-02-11T04:16:16.034Z,60.60
2023-02-11T04:17:16.009Z,56.20
2023-02-11T04:18:15.966Z,59.80
2023-02-11T04:19:15.970Z,64.00
2023-02-11T04:20:15.973Z,58.90
2023-02-11T04:21:15.962Z,60.30
2023-02-11T04:22:15.973Z,62.30
2023-02-11T04:23:15.954Z,60.30
2023-02-11T04:24:15.923Z,60.60
2023-02-11T04:25:15.961Z,62.20
2023-02-11T04:26:15.916Z,59.80
2023-02-11T04:27:15.910Z,58.10
2023-02-11T04:28:15.979Z,64.50
2023-02-11T04:29:15.915Z,60.80
2023-02-11T04:30:15.905Z,61.20
2023-02-11T04:31:16.038Z,62.40
2023-02-11T04:32:15.884Z,61.20
2023-02-11T04:33:15.971Z,66.40
2023-02-11T04:34:15.862Z,61.20
2023-02-11T04:35:15.855Z,57.70
2023-02-11T04:36:15.862Z,60.60
2023-02-11T04:37:15.839Z,61.90
2023-02-11T04:38:15.840Z,58.50
2023-02-11T04:39:15.812Z,58.80
2023-02-11T04:40:15.793Z,60.30
2023-02-11T04:41:15.814Z,62.30
2023-02-11T04:42:15.825Z,56.00
2023-02-11T04:43:15.780Z,57.90
2023-02-11T04:44:15.766Z,60.30
2023-02-11T04:45:15.802Z,58.40
2023-02-11T04:46:15.884Z,56.00
2023-02-11T04:47:15.758Z,60.90
2023-02-11T04:48:15.782Z,58.40
2023-02-11T04:49:15.744Z,60.70
2023-02-11T04:50:15.726Z,61.70
2023-02-11T04:51:15.754Z,61.00
2023-02-11T04:52:15.710Z,60.90
2023-02-11T04:53:15.712Z,58.60
2023-02-11T04:54:15.707Z,62.20
2023-02-11T04:55:15.689Z,65.60
2023-02-11T04:56:15.688Z,58.00
2023-02-11T04:57:15.677Z,61.30
2023-02-11T04:58:15.727Z,57.30
2023-02-11T04:59:15.750Z,61.00
2023-02-11T05:00:15.678Z,52.70
2023-02-11T05:01:15.671Z,61.10
2023-02-11T05:02:15.660Z,51.40
2023-02-11T05:03:15.605Z,58.10
2023-02-11T05:04:15.680Z,61.90
2023-02-11T05:05:15.618Z,60.00
2023-02-11T05:06:15.601Z,61.10
2023-02-11T05:07:15.633Z,59.50
2023-02-11T05:08:15.602Z,61.70
2023-02-11T05:09:15.578Z,59.20
2023-02-11T05:10:15.603Z,57.80
2023-02-11T05:11:15.559Z,59.60
2023-02-11T05:12:15.572Z,60.90
2023-02-11T05:13:15.555Z,58.10
2023-02-11T05:14:15.540Z,59.40
2023-02-11T05:15:15.554Z,55.50
2023-02-11T05:16:15.561Z,55.40
2023-02-11T05:17:15.531Z,60.30
2023-02-11T05:18:15.522Z,56.00
2023-02-11T05:19:15.518Z,58.70
2023-02-11T05:20:15.506Z,59.00
2023-02-11T05:21:15.483Z,58.60
2023-02-11T05:22:15.479Z,60.30
2023-02-11T05:23:15.470Z,60.60
2023-02-11T05:24:15.458Z,60.80
2023-02-11T05:25:15.487Z,59.30
2023-02-11T05:26:15.449Z,59.40
2023-02-11T05:27:15.444Z,54.70
2023-02-11T05:28:15.500Z,57.00
2023-02-11T05:29:15.432Z,57.60
2023-02-11T05:30:15.456Z,58.60
2023-02-11T05:31:15.824Z,54.60
2023-02-11T05:32:15.406Z,56.10
2023-02-11T05:33:15.411Z,55.60
2023-02-11T05:34:15.410Z,54.80
2023-02-11T05:35:15.390Z,56.20
2023-02-11T05:36:15.425Z,53.60
2023-02-11T05:37:15.399Z,56.60
2023-02-11T05:38:15.364Z,57.50
2023-02-11T05:39:15.350Z,56.40
2023-02-11T05:40:15.350Z,56.10
2023-02-11T05:41:16.367Z,60.00
2023-02-11T05:42:15.324Z,61.40
2023-02-11T05:43:15.321Z,58.40
2023-02-11T05:44:15.333Z,59.10
2023-02-11T05:45:15.307Z,47.90
2023-02-11T05:46:15.329Z,57.00
2023-02-11T05:47:16.301Z,56.70
2023-02-11T05:48:15.299Z,51.90
2023-02-11T05:49:15.267Z,55.60
2023-02-11T05:50:15.311Z,55.90
2023-02-11T05:51:15.283Z,54.20
2023-02-11T05:52:15.772Z,57.10
2023-02-11T05:53:15.240Z,55.50
2023-02-11T05:54:15.264Z,54.10
2023-02-11T05:55:15.239Z,52.80
2023-02-11T05:56:15.244Z,53.00
2023-02-11T05:57:15.305Z,51.10
2023-02-11T05:58:15.226Z,54.10
2023-02-11T05:59:15.226Z,54.90
2023-02-11T06:00:15.196Z,52.30
2023-02-11T06:01:15.180Z,58.20
2023-02-11T06:02:15.205Z,63.30
2023-02-11T06:03:15.197Z,56.60
2023-02-11T06:04:15.169Z,56.50
2023-02-11T06:05:15.185Z,55.10
2023-02-11T06:06:15.166Z,58.10
2023-02-11T06:07:15.117Z,53.40
2023-02-11T06:08:15.117Z,57.00
2023-02-11T06:09:15.119Z,56.20
2023-02-11T06:10:15.140Z,56.90
2023-02-11T06:11:15.110Z,55.60
2023-02-11T06:12:15.090Z,56.30
2023-02-11T06:13:15.101Z,60.90
2023-02-11T06:14:15.135Z,59.20
2023-02-11T06:15:15.098Z,58.50
2023-02-11T06:16:15.133Z,57.50
2023-02-11T06:17:15.783Z,56.60
2023-02-11T06:18:16.068Z,54.80
2023-02-11T06:19:15.069Z,53.90
2023-02-11T06:20:15.051Z,58.90
2023-02-11T06:21:15.073Z,57.20
2023-02-11T06:22:15.023Z,56.80
2023-02-11T06:23:15.007Z,58.60
2023-02-11T06:24:17.431Z,56.60
2023-02-11T06:25:15.000Z,53.70
2023-02-11T06:26:15.006Z,58.60
2023-02-11T06:27:14.990Z,59.10
2023-02-11T06:28:15.053Z,58.10
2023-02-11T06:29:14.986Z,61.00
2023-02-11T06:30:14.990Z,55.60
2023-02-11T06:31:15.214Z,57.20
2023-02-11T06:32:37.043Z,61.40
2023-02-11T06:33:16.997Z,56.60
2023-02-11T06:34:14.952Z,58.40
2023-02-11T06:35:15.012Z,60.50
2023-02-11T06:36:14.955Z,57.00
2023-02-11T06:37:14.922Z,56.60
2023-02-11T06:38:14.973Z,55.20
2023-02-11T06:39:14.912Z,57.00
2023-02-11T06:40:14.902Z,55.40
2023-02-11T06:41:14.882Z,56.20
2023-02-11T06:42:14.891Z,58.30
2023-02-11T06:43:14.883Z,55.00
2023-02-11T06:44:14.863Z,57.70
2023-02-11T06:45:15.847Z,54.80
2023-02-11T06:46:14.943Z,57.40
2023-02-11T06:47:14.859Z,55.20
2023-02-11T06:48:14.863Z,55.00
2023-02-11T06:49:14.826Z,55.60
2023-02-11T06:50:14.826Z,57.20
2023-02-11T06:51:14.831Z,54.10
2023-02-11T06:52:14.807Z,52.90
2023-02-11T06:53:14.827Z,57.10
2023-02-11T06:54:14.827Z,52.10
2023-02-11T06:55:14.817Z,55.20
2023-02-11T06:56:14.770Z,54.40
2023-02-11T06:57:14.778Z,56.70
2023-02-11T06:58:14.780Z,57.90
2023-02-11T06:59:14.782Z,59.50
2023-02-11T07:00:14.790Z,55.40
2023-02-11T07:01:14.745Z,58.10
2023-02-11T07:02:14.835Z,56.00
2023-02-11T07:03:14.801Z,62.00
2023-02-11T07:04:14.728Z,61.90
2023-02-11T07:05:14.703Z,56.90
2023-02-11T07:06:14.745Z,61.80
2023-02-11T07:07:14.690Z,58.80
2023-02-11T07:08:14.713Z,56.10
2023-02-11T07:09:14.695Z,53.80
2023-02-11T07:10:14.700Z,53.60
2023-02-11T07:11:14.678Z,54.10
2023-02-11T07:12:14.646Z,52.20
2023-02-11T07:13:14.643Z,51.90
2023-02-11T07:14:14.687Z,55.30
2023-02-11T07:15:14.653Z,53.70
2023-02-11T07:16:14.728Z,51.50
2023-02-11T07:17:14.643Z,52.00
2023-02-11T07:18:14.834Z,56.60
2023-02-11T07:19:16.173Z,53.20
2023-02-11T07:20:14.703Z,53.00
2023-02-11T07:21:14.578Z,53.70
2023-02-11T07:22:14.587Z,49.00
2023-02-11T07:23:14.606Z,53.90
2023-02-11T07:24:14.570Z,49.20
2023-02-11T07:25:15.167Z,49.60
2023-02-11T07:26:14.545Z,55.10
2023-02-11T07:27:15.551Z,48.10
2023-02-11T07:28:14.637Z,52.80
2023-02-11T07:29:14.546Z,52.90
2023-02-11T07:30:14.518Z,52.60
2023-02-11T07:31:14.701Z,55.20
2023-02-11T07:32:14.567Z,50.40
2023-02-11T07:33:14.506Z,55.00
2023-02-11T07:34:14.526Z,50.10
2023-02-11T07:35:14.503Z,51.60
2023-02-11T07:36:14.532Z,51.30
2023-02-11T07:37:14.471Z,53.20
2023-02-11T07:38:14.482Z,53.30
2023-02-11T07:39:14.499Z,50.40
2023-02-11T07:40:14.436Z,53.70
2023-02-11T07:41:14.451Z,51.80
2023-02-11T07:42:14.425Z,51.20
2023-02-11T07:43:14.438Z,49.10
2023-02-11T07:44:14.446Z,51.10
2023-02-11T07:45:14.409Z,49.90
2023-02-11T07:46:14.437Z,51.60
2023-02-11T07:47:14.394Z,47.80
2023-02-11T07:48:14.387Z,52.30
2023-02-11T07:49:14.380Z,55.40
2023-02-11T07:50:14.430Z,50.10
2023-02-11T07:51:14.397Z,52.40
2023-02-11T07:52:14.361Z,54.40
2023-02-11T07:53:14.344Z,49.20
2023-02-11T07:54:15.194Z,52.00
2023-02-11T07:55:14.378Z,55.00
2023-02-11T07:56:14.344Z,50.70
2023-02-11T07:57:14.344Z,48.80
2023-02-11T07:58:14.339Z,52.00
2023-02-11T07:59:14.315Z,54.70
2023-02-11T08:00:14.305Z,46.00
2023-02-11T08:01:14.421Z,51.80
2023-02-11T08:02:14.344Z,53.10
2023-02-11T08:03:14.276Z,53.00
2023-02-11T08:04:14.292Z,46.50
2023-02-11T08:05:14.245Z,53.50
2023-02-11T08:06:14.331Z,50.20
2023-02-11T08:07:14.256Z,49.90
2023-02-11T08:08:14.286Z,50.90
2023-02-11T08:09:14.243Z,51.20
2023-02-11T08:10:14.238Z,46.10
2023-02-11T08:11:14.221Z,49.00
2023-02-11T08:12:14.250Z,52.80
2023-02-11T08:13:14.201Z,53.80
2023-02-11T08:14:14.191Z,59.70
2023-02-11T08:15:14.209Z,59.50
2023-02-11T08:16:14.210Z,59.60
2023-02-11T08:17:14.248Z,52.50
2023-02-11T08:18:15.212Z,53.00
2023-02-11T08:19:14.160Z,57.20
2023-02-11T08:20:14.150Z,51.00
2023-02-11T08:21:14.132Z,52.80
2023-02-11T08:22:14.185Z,56.00
2023-02-11T08:23:14.131Z,50.10
2023-02-11T08:24:14.686Z,51.40
2023-02-11T08:25:14.127Z,49.70
2023-02-11T08:26:14.117Z,56.20
2023-02-11T08:27:14.165Z,52.90
2023-02-11T08:28:14.145Z,55.30
2023-02-11T08:29:14.141Z,50.80
2023-02-11T08:30:14.073Z,50.70
2023-02-11T08:31:14.142Z,54.80
2023-02-11T08:32:14.124Z,58.90
2023-02-11T08:33:14.075Z,51.70
2023-02-11T08:34:14.139Z,57.80
2023-02-11T08:35:14.071Z,55.30
2023-02-11T08:36:14.063Z,57.10
2023-02-11T08:37:14.038Z,49.50
2023-02-11T08:38:14.060Z,53.50
2023-02-11T08:39:19.740Z,56.00
2023-02-11T08:40:16.039Z,52.60
2023-02-11T08:41:14.779Z,55.50
2023-02-11T08:42:14.001Z,53.20
2023-02-11T08:43:13.984Z,52.70
2023-02-11T08:44:14.027Z,56.40
2023-02-11T08:45:13.964Z,55.40
2023-02-11T08:46:14.033Z,58.50
2023-02-11T08:47:13.972Z,58.40
2023-02-11T08:48:13.937Z,50.70
2023-02-11T08:49:13.950Z,54.10
2023-02-11T08:50:13.953Z,59.50
2023-02-11T08:51:13.937Z,58.10
2023-02-11T08:52:13.936Z,55.60
2023-02-11T08:53:13.969Z,56.70
2023-02-11T08:54:13.919Z,61.40
2023-02-11T08:55:13.923Z,59.70
2023-02-11T08:56:13.937Z,56.50
2023-02-11T08:57:13.918Z,57.70
2023-02-11T08:58:13.871Z,59.50
2023-02-11T08:59:13.898Z,56.00
2023-02-11T09:00:14.740Z,59.70
2023-02-11T09:01:14.702Z,56.00
2023-02-11T09:02:13.940Z,55.90
2023-02-11T09:03:13.844Z,54.00
2023-02-11T09:04:13.841Z,59.60
2023-02-11T09:05:13.820Z,55.30
2023-02-11T09:06:14.819Z,57.00
2023-02-11T09:07:13.823Z,56.40
2023-02-11T09:08:13.837Z,53.00
2023-02-11T09:09:13.804Z,58.80
2023-02-11T09:10:13.817Z,61.00
2023-02-11T09:11:13.799Z,61.20
2023-02-11T09:12:13.818Z,60.40
2023-02-11T09:13:13.783Z,55.60
2023-02-11T09:14:13.799Z,59.40
2023-02-11T09:15:14.669Z,52.70
2023-02-11T09:16:13.758Z,56.00
2023-02-11T09:17:13.750Z,57.00
2023-02-11T09:18:13.728Z,54.50
2023-02-11T09:19:13.726Z,52.90
2023-02-11T09:20:13.735Z,50.60
2023-02-11T09:21:13.676Z,51.80
2023-02-11T09:22:13.712Z,59.30
2023-02-11T09:23:13.684Z,59.30
2023-02-11T09:24:13.667Z,52.60
2023-02-11T09:25:45.557Z,60.30
2023-02-11T09:26:45.635Z,55.10
2023-02-11T09:27:45.567Z,50.10
2023-02-11T09:28:13.696Z,54.00
2023-02-11T09:29:45.660Z,51.40
2023-02-11T09:30:14.293Z,52.80
2023-02-11T09:31:45.582Z,56.10
2023-02-11T09:32:45.529Z,54.70
2023-02-11T09:33:45.502Z,60.20
2023-02-11T09:34:45.548Z,52.50
2023-02-11T09:35:13.594Z,53.80
2023-02-11T09:36:45.483Z,53.90
2023-02-11T09:37:13.573Z,52.60
2023-02-11T09:38:13.581Z,54.90
2023-02-11T09:39:13.556Z,51.30
2023-02-11T09:40:45.497Z,55.00
2023-02-11T09:41:13.587Z,54.70
2023-02-11T09:42:45.465Z,53.00
2023-02-11T09:43:13.528Z,53.90
2023-02-11T09:44:45.438Z,56.70
2023-02-11T09:45:13.517Z,59.50
2023-02-11T09:46:45.462Z,58.30
2023-02-11T09:47:13.518Z,55.70
2023-02-11T09:48:45.433Z,56.50
2023-02-11T09:49:13.473Z,59.50
2023-02-11T09:50:45.392Z,57.40
2023-02-11T09:51:13.471Z,59.70
2023-02-11T09:52:45.425Z,59.30
2023-02-11T09:53:13.481Z,58.00
2023-02-11T09:54:45.361Z,60.80
2023-02-11T09:55:45.356Z,59.60
2023-02-11T09:56:13.464Z,60.20
2023-02-11T09:57:45.550Z,66.80
2023-02-11T09:58:45.418Z,63.40
2023-02-11T09:59:13.446Z,58.30
2023-02-11T10:00:13.438Z,60.80
2023-02-11T10:01:13.470Z,59.40
2023-02-11T10:02:13.405Z,68.30
2023-02-11T10:03:13.425Z,65.20
2023-02-11T10:04:13.419Z,59.10
2023-02-11T10:05:13.414Z,58.10
2023-02-11T10:06:13.376Z,62.30
2023-02-11T10:07:13.465Z,61.10
2023-02-11T10:08:16.824Z,56.20
2023-02-11T10:09:14.360Z,57.60
2023-02-11T10:10:13.341Z,63.30
2023-02-11T10:11:25.998Z,61.10
2023-02-11T10:12:15.323Z,66.20
2023-02-11T10:13:13.325Z,58.70
2023-02-11T10:14:13.304Z,58.70
2023-02-11T10:15:13.316Z,66.40
2023-02-11T10:16:13.331Z,61.00
2023-02-11T10:17:13.283Z,60.10
2023-02-11T10:18:13.268Z,62.80
2023-02-11T10:19:13.267Z,64.70
2023-02-11T10:20:16.724Z,63.80
2023-02-11T10:21:14.267Z,70.20
2023-02-11T10:22:13.279Z,61.60
2023-02-11T10:23:13.270Z,62.80
2023-02-11T10:24:13.244Z,63.70
2023-02-11T10:25:13.273Z,61.50
2023-02-11T10:26:13.235Z,64.40
2023-02-11T10:27:13.216Z,64.30
2023-02-11T10:28:13.220Z,61.40
2023-02-11T10:29:13.197Z,65.90
2023-02-11T10:30:13.201Z,61.70
2023-02-11T10:31:13.273Z,64.90
2023-02-11T10:32:13.333Z,58.40
2023-02-11T10:33:13.244Z,58.80
2023-02-11T10:34:13.203Z,61.30
2023-02-11T10:35:13.195Z,55.50
2023-02-11T10:36:13.220Z,61.20
2023-02-11T10:37:13.252Z,61.70
2023-02-11T10:38:13.210Z,63.70
2023-02-11T10:39:13.142Z,62.40
2023-02-11T10:40:13.145Z,59.50
2023-02-11T10:41:13.141Z,61.70
2023-02-11T10:42:13.109Z,61.30
2023-02-11T10:43:13.082Z,62.10
2023-02-11T10:44:13.068Z,67.30
2023-02-11T10:45:13.171Z,53.60
2023-02-11T10:46:13.070Z,58.40
2023-02-11T10:47:13.062Z,65.90
2023-02-11T10:48:15.550Z,62.70
2023-02-11T10:49:13.090Z,60.10
2023-02-11T10:50:13.063Z,59.30
2023-02-11T10:51:14.540Z,58.00
2023-02-11T10:52:14.032Z,64.60
2023-02-11T10:53:13.040Z,61.90
2023-02-11T10:54:13.859Z,59.90
2023-02-11T10:55:13.983Z,56.30
2023-02-11T10:56:13.057Z,63.80
2023-02-11T10:57:12.974Z,59.80
2023-02-11T10:58:13.002Z,57.70
2023-02-11T10:59:12.960Z,58.70
2023-02-11T11:00:13.200Z,62.90
2023-02-11T11:01:23.975Z,55.60
2023-02-11T11:02:15.014Z,61.40
2023-02-11T11:03:13.035Z,57.90
2023-02-11T11:04:13.017Z,58.40
2023-02-11T11:05:12.910Z,51.70
2023-02-11T11:06:12.926Z,54.10
2023-02-11T11:07:13.035Z,59.90
2023-02-11T11:08:12.906Z,57.90
2023-02-11T11:09:13.029Z,51.80
2023-02-11T11:10:12.935Z,58.70
2023-02-11T11:11:12.884Z,49.40
2023-02-11T11:12:12.927Z,54.40
2023-02-11T11:13:13.005Z,56.70
2023-02-11T11:14:12.873Z,57.80
2023-02-11T11:15:12.921Z,58.20
2023-02-11T11:16:12.901Z,58.50
2023-02-11T11:17:12.822Z,58.70
2023-02-11T11:18:21.331Z,61.10
2023-02-11T11:19:14.848Z,56.30
2023-02-11T11:20:12.931Z,57.60
2023-02-11T11:21:12.802Z,55.60
2023-02-11T11:22:12.863Z,57.30
2023-02-11T11:23:12.843Z,53.00
2023-02-11T11:24:12.800Z,56.20
2023-02-11T11:25:12.917Z,51.00
2023-02-11T11:26:12.794Z,56.70
2023-02-11T11:27:12.754Z,53.60
2023-02-11T11:28:12.839Z,51.30
2023-02-11T11:29:12.752Z,52.00
2023-02-11T11:30:12.940Z,51.80
2023-02-11T11:31:12.842Z,56.10
2023-02-11T11:32:12.836Z,53.90
2023-02-11T11:33:12.746Z,53.60
2023-02-11T11:34:12.679Z,53.00
2023-02-11T11:35:12.699Z,54.40
2023-02-11T11:36:12.737Z,54.30
2023-02-11T11:37:12.674Z,51.40
2023-02-11T11:38:12.870Z,53.10
2023-02-11T11:39:12.675Z,49.70
2023-02-11T11:40:12.773Z,51.20
2023-02-11T11:41:12.836Z,47.80
2023-02-11T11:42:12.676Z,53.40
2023-02-11T11:43:12.634Z,49.80
2023-02-11T11:44:13.597Z,48.70
2023-02-11T11:45:12.682Z,47.70
2023-02-11T11:46:13.157Z,49.60
2023-02-11T11:47:12.703Z,49.70
2023-02-11T11:48:12.592Z,46.50
2023-02-11T11:49:12.551Z,48.80
2023-02-11T11:50:12.564Z,45.70
2023-02-11T11:51:12.574Z,47.10
2023-02-11T11:52:12.614Z,49.30
2023-02-11T11:53:12.546Z,45.20
2023-02-11T11:54:12.629Z,44.60
2023-02-11T11:55:12.543Z,46.90
2023-02-11T11:56:12.688Z,43.20
2023-02-11T11:57:12.506Z,48.70
2023-02-11T11:58:12.569Z,42.70
2023-02-11T11:59:12.503Z,43.70
2023-02-11T12:00:12.496Z,48.10
2023-02-11T12:01:12.535Z,44.40
2023-02-11T12:02:12.599Z,48.40
2023-02-11T12:03:12.514Z,42.60
2023-02-11T12:04:12.494Z,41.90
2023-02-11T12:05:12.438Z,46.40
2023-02-11T12:06:12.495Z,46.90
2023-02-11T12:07:12.434Z,45.70
2023-02-11T12:08:12.442Z,45.10
2023-02-11T12:09:12.547Z,44.00
2023-02-11T12:10:12.396Z,42.60
2023-02-11T12:11:12.448Z,40.30
2023-02-11T12:12:12.386Z,43.60
2023-02-11T12:13:12.411Z,42.20
2023-02-11T12:14:12.392Z,44.60
2023-02-11T12:15:12.459Z,45.10
2023-02-11T12:16:13.922Z,44.60
2023-02-11T12:17:12.350Z,43.80
2023-02-11T12:18:12.384Z,43.50
2023-02-11T12:19:12.356Z,41.80
2023-02-11T12:20:12.378Z,42.80
2023-02-11T12:21:12.357Z,41.30
2023-02-11T12:22:12.366Z,40.00
2023-02-11T12:23:44.247Z,38.00
2023-02-11T12:24:12.326Z,47.90
2023-02-11T12:25:12.308Z,37.90
2023-02-11T12:26:12.295Z,43.90
2023-02-11T12:27:12.298Z,44.90
2023-02-11T12:28:12.333Z,41.40
2023-02-11T12:29:12.272Z,39.50
2023-02-11T12:30:12.263Z,41.90
2023-02-11T12:31:13.290Z,39.10
2023-02-11T12:32:13.381Z,40.10
2023-02-11T12:33:12.242Z,46.50
2023-02-11T12:34:12.246Z,49.90
2023-02-11T12:35:12.257Z,47.00
2023-02-11T12:36:12.241Z,37.30
2023-02-11T12:37:12.231Z,41.40
2023-02-11T12:38:12.222Z,39.80
2023-02-11T12:39:12.210Z,45.40
2023-02-11T12:40:12.198Z,40.80
2023-02-11T12:41:12.223Z,39.10
2023-02-11T12:42:12.217Z,36.90
2023-02-11T12:43:12.179Z,42.80
2023-02-11T12:44:12.157Z,40.50
2023-02-11T12:45:12.227Z,38.70
2023-02-11T12:46:12.247Z,40.70
2023-02-11T12:47:12.165Z,39.60
2023-02-11T12:48:12.141Z,38.40
2023-02-11T12:49:12.108Z,39.20
2023-02-11T12:50:12.138Z,38.10
2023-02-11T12:51:12.139Z,37.20
2023-02-11T12:52:12.106Z,38.70
2023-02-11T12:53:12.109Z,39.20
2023-02-11T12:54:12.075Z,39.70
2023-02-11T12:55:12.096Z,37.50
2023-02-11T12:56:12.069Z,42.50
2023-02-11T12:57:12.083Z,43.80
2023-02-11T12:58:12.057Z,46.60
2023-02-11T12:59:14.306Z,41.90
2023-02-11T13:00:13.033Z,48.00
2023-02-11T13:01:12.163Z,43.50
2023-02-11T13:02:12.119Z,43.20
2023-02-11T13:03:12.046Z,41.80
2023-02-11T13:04:12.009Z,41.80
2023-02-11T13:05:14.265Z,37.60
2023-02-11T13:06:13.036Z,39.40
2023-02-11T13:07:11.997Z,38.50